Waialua, Hawaii
Current Conditions -  °F | °C
As of 4:55 AM on Tuesday 21 Oct 2014 (Local Time) from PHHI Reporting Station
Scattered Clouds Scattered Clouds  
Wind Chill: 68°   Ceiling: Unl
Heat Index: 68°   Visibility: 7mi
Dew Point: 63°   Wind: 7mph
Humidity: 83%   Direction: NA
Pressure: 30.03"   Gusts: NA
Location:  21.57°N, 158.12°W
Report Text: PHHI 211455Z VRB06KT 7SM FEW040 SCT120 20/17 A3003 RMK AO2A SLPNO WND DATA ESTMD ALSTG/SLP ESTMD $
Loading
Personal Weather Stations






























Interactive Weather Map
Tropical Storm Tracking
New forecast layout! Learn more

10-Day Weather Forecast

Advertisements
Track Severe Weather on mobile